Time;durP1;ratioP1;P1;durP2;ratioP2;P2;SDS_P1;SDS_P2;PMS_P1;PMS_P2;Temp;Humidity;BMP_temperature;BMP_pressure;BME280_temperature;BME280_humidity;BME280_pressure;Samples;Min_cycle;Max_cycle;Signal;HPM_P1;HPM_P2
2020/12/23 00:01:41;;;;;;;5.50;3.17;;;8.70;99.90;;;;;;5053546;28;20226;-40
2020/12/23 00:04:09;;;;;;;3.92;3.00;;;8.80;99.90;;;;;;5054244;28;20207;-40
2020/12/23 00:06:36;;;;;;;5.00;3.33;;;8.80;99.90;;;;;;5054217;28;20203;-41
2020/12/23 00:09:04;;;;;;;3.43;2.93;;;8.90;99.90;;;;;;5053242;28;20210;-40
2020/12/23 00:11:31;;;;;;;4.15;3.25;;;8.90;99.90;;;;;;5052889;28;20211;-40
2020/12/23 00:13:57;;;;;;;4.43;3.30;;;9.00;99.90;;;;;;5053528;28;20565;-41
2020/12/23 00:16:23;;;;;;;4.17;3.50;;;9.00;99.90;;;;;;5054278;28;20193;-41
2020/12/23 00:18:50;;;;;;;6.25;3.47;;;9.00;99.90;;;;;;5053508;28;20199;-40
2020/12/23 00:21:17;;;;;;;5.07;3.03;;;9.00;99.90;;;;;;5052859;28;20223;-40
2020/12/23 00:23:44;;;;;;;4.72;3.70;;;9.00;99.90;;;;;;5053934;28;20192;-40
2020/12/23 00:26:11;;;;;;;3.85;3.38;;;8.90;99.90;;;;;;5053259;28;20214;-41
2020/12/23 00:28:38;;;;;;;4.07;3.70;;;8.80;99.90;;;;;;5052834;28;20565;-41
2020/12/23 00:31:06;;;;;;;4.03;3.60;;;8.80;99.90;;;;;;5052920;28;20282;-42
2020/12/23 00:33:32;;;;;;;5.37;3.90;;;8.80;99.90;;;;;;5052120;28;20240;-40
2020/12/23 00:35:59;;;;;;;5.43;3.55;;;8.90;99.90;;;;;;5053063;28;20285;-40
2020/12/23 00:38:26;;;;;;;4.03;3.63;;;8.80;99.90;;;;;;5053491;28;20190;-41
2020/12/23 00:40:53;;;;;;;4.47;4.07;;;8.80;99.90;;;;;;5051819;28;20264;-41
2020/12/23 00:43:19;;;;;;;4.53;4.07;;;9.00;99.90;;;;;;5051589;28;20331;-42
2020/12/23 00:45:46;;;;;;;9.20;3.65;;;8.90;99.90;;;;;;5051870;28;20191;-42
2020/12/23 00:48:12;;;;;;;4.47;3.87;;;9.00;99.90;;;;;;5050434;28;20263;-42
2020/12/23 00:50:39;;;;;;;8.00;5.10;;;9.00;99.90;;;;;;5051645;28;20219;-42
2020/12/23 00:53:05;;;;;;;7.40;4.45;;;9.00;99.90;;;;;;5051640;28;20223;-42
2020/12/23 00:55:33;;;;;;;5.82;4.35;;;9.00;99.90;;;;;;5052204;28;20219;-46
2020/12/23 00:57:59;;;;;;;6.85;5.22;;;9.00;99.90;;;;;;5052680;28;20203;-42
2020/12/23 01:00:26;;;;;;;5.53;4.47;;;9.00;99.90;;;;;;5052213;28;20279;-42
2020/12/23 01:02:52;;;;;;;7.07;5.27;;;9.00;99.90;;;;;;5052410;28;20202;-42
2020/12/23 01:05:19;;;;;;;6.67;4.80;;;9.00;99.90;;;;;;5050061;28;20203;-42
2020/12/23 01:07:45;;;;;;;5.80;4.67;;;9.00;99.90;;;;;;5051747;28;20191;-42
2020/12/23 01:10:12;;;;;;;5.07;4.23;;;9.00;99.90;;;;;;5052572;28;20245;-42
2020/12/23 01:12:39;;;;;;;4.67;4.27;;;9.00;99.90;;;;;;5049902;28;20282;-42
2020/12/23 01:15:06;;;;;;;5.40;4.33;;;9.00;99.90;;;;;;5052388;28;20662;-42
2020/12/23 01:17:32;;;;;;;5.70;4.45;;;9.00;99.90;;;;;;5052213;28;20868;-42
2020/12/23 01:19:59;;;;;;;5.47;4.77;;;9.00;99.90;;;;;;5052062;28;20208;-41
2020/12/23 01:22:25;;;;;;;5.25;4.75;;;9.10;99.90;;;;;;5051887;28;20221;-42
2020/12/23 01:24:52;;;;;;;6.10;5.53;;;9.00;99.90;;;;;;5051736;28;20653;-41
2020/12/23 01:27:19;;;;;;;9.73;5.63;;;9.00;99.90;;;;;;5048386;28;20192;-42
2020/12/23 01:29:46;;;;;;;9.33;5.90;;;9.00;99.90;;;;;;5053617;28;20654;-42
2020/12/23 01:32:12;;;;;;;6.90;6.20;;;9.00;99.90;;;;;;5050591;28;20287;-42
2020/12/23 01:34:39;;;;;;;6.97;6.00;;;9.00;99.90;;;;;;5048267;28;20208;-41
2020/12/23 01:37:05;;;;;;;5.80;5.20;;;9.00;99.90;;;;;;5050338;28;20191;-42
2020/12/23 01:39:32;;;;;;;6.27;5.67;;;8.90;99.90;;;;;;5050335;28;20197;-42
2020/12/23 01:41:59;;;;;;;5.80;5.30;;;9.00;99.90;;;;;;5047499;28;20226;-42
2020/12/23 01:44:25;;;;;;;7.57;5.82;;;8.90;99.90;;;;;;5049769;28;20199;-42
2020/12/23 01:46:53;;;;;;;6.27;5.67;;;8.90;99.90;;;;;;5050346;28;20193;-42
2020/12/23 01:49:20;;;;;;;7.30;6.60;;;8.90;99.90;;;;;;5049746;28;20758;-42
2020/12/23 01:51:47;;;;;;;7.10;6.23;;;8.90;99.90;;;;;;5050288;28;20219;-42
2020/12/23 01:54:14;;;;;;;6.73;5.57;;;8.90;99.90;;;;;;5050539;28;20207;-42
2020/12/23 01:56:43;;;;;;;7.37;5.73;;;9.00;99.90;;;;;;5047948;28;20215;-42
2020/12/23 01:59:10;;;;;;;7.07;6.37;;;8.90;99.90;;;;;;5050077;28;20199;-42
2020/12/23 02:01:47;;;;;;;7.60;5.43;;;8.90;99.90;;;;;;5057054;28;20706;-42
2020/12/23 02:04:16;;;;;;;7.87;6.23;;;8.90;99.90;;;;;;5049845;28;20232;-42
2020/12/23 02:06:42;;;;;;;7.47;6.67;;;8.90;99.90;;;;;;5050437;28;20231;-41
2020/12/23 02:09:10;;;;;;;7.03;6.43;;;9.00;99.90;;;;;;5050296;28;20203;-42
2020/12/23 02:11:37;;;;;;;10.67;5.60;;;9.00;99.90;;;;;;5046041;28;20215;-42
2020/12/23 02:14:03;;;;;;;7.93;7.13;;;9.00;99.90;;;;;;5049689;28;20229;-42
2020/12/23 02:16:30;;;;;;;7.17;6.47;;;8.90;99.90;;;;;;5050187;28;20266;-42
2020/12/23 02:18:56;;;;;;;8.23;7.18;;;8.80;99.90;;;;;;5050114;28;20202;-42
2020/12/23 02:21:24;;;;;;;10.32;6.47;;;8.80;99.90;;;;;;5049115;28;20579;-42
2020/12/23 02:23:52;;;;;;;9.00;7.72;;;8.80;99.90;;;;;;5050481;28;20608;-41
2020/12/23 02:26:18;;;;;;;10.33;9.30;;;8.80;99.90;;;;;;5050482;28;20278;-41
2020/12/23 02:28:45;;;;;;;9.70;7.97;;;8.80;99.90;;;;;;5049491;28;20730;-42
2020/12/23 02:31:11;;;;;;;9.57;7.70;;;8.80;99.90;;;;;;5049737;28;20221;-41
2020/12/23 02:33:38;;;;;;;8.37;7.10;;;8.70;99.90;;;;;;5049887;28;20199;-41
2020/12/23 02:36:04;;;;;;;10.07;8.90;;;8.70;99.90;;;;;;5050154;28;20196;-42
2020/12/23 02:38:31;;;;;;;9.13;8.00;;;8.70;99.90;;;;;;5049858;28;20203;-42
2020/12/23 02:40:58;;;;;;;8.87;7.97;;;8.70;99.90;;;;;;5050215;28;20226;-41
2020/12/23 02:43:25;;;;;;;9.80;8.27;;;8.70;99.90;;;;;;5049939;28;20195;-41
2020/12/23 02:45:51;;;;;;;8.70;6.93;;;8.70;99.90;;;;;;5050110;28;20248;-41
2020/12/23 02:48:18;;;;;;;10.13;7.60;;;8.70;99.90;;;;;;5050483;28;20536;-42
2020/12/23 02:50:44;;;;;;;8.20;7.40;;;8.70;99.90;;;;;;5050501;28;20233;-42
2020/12/23 02:53:11;;;;;;;9.27;8.13;;;8.70;99.90;;;;;;5050016;28;20237;-41
2020/12/23 02:55:37;;;;;;;10.27;7.73;;;8.60;99.90;;;;;;5050117;28;20785;-41
2020/12/23 02:58:05;;;;;;;8.80;7.20;;;8.60;99.90;;;;;;5053914;28;20570;-41
2020/12/23 03:00:31;;;;;;;8.00;7.20;;;8.50;99.90;;;;;;5054998;28;20215;-42
2020/12/23 03:02:58;;;;;;;8.05;7.35;;;8.60;99.90;;;;;;5057203;28;20294;-41
2020/12/23 03:05:24;;;;;;;9.27;7.70;;;8.60;99.90;;;;;;5054047;28;20572;-42
2020/12/23 03:07:50;;;;;;;9.17;7.83;;;8.60;99.90;;;;;;5054274;28;20224;-42
2020/12/23 03:10:17;;;;;;;9.50;8.50;;;8.60;99.90;;;;;;5053739;28;20223;-42
2020/12/23 03:12:44;;;;;;;8.52;7.25;;;8.60;99.90;;;;;;5053840;28;20197;-41
2020/12/23 03:15:11;;;;;;;9.05;7.65;;;8.60;99.90;;;;;;5053715;28;20289;-42
2020/12/23 03:17:38;;;;;;;9.40;7.70;;;8.60;99.90;;;;;;5056879;28;20729;-41
2020/12/23 03:20:05;;;;;;;10.35;8.07;;;8.60;99.90;;;;;;5054095;28;20192;-42
2020/12/23 03:22:31;;;;;;;9.70;8.00;;;8.60;99.90;;;;;;5054040;28;20294;-41
2020/12/23 03:24:58;;;;;;;9.02;7.32;;;8.60;99.90;;;;;;5053936;28;20201;-42
2020/12/23 03:27:25;;;;;;;8.93;7.72;;;8.70;99.90;;;;;;5036218;28;20255;-41
2020/12/23 03:29:51;;;;;;;11.32;7.85;;;8.70;99.90;;;;;;5035922;28;20219;-41
2020/12/23 03:32:19;;;;;;;7.75;6.97;;;8.70;99.90;;;;;;5053523;28;20230;-41
2020/12/23 03:34:45;;;;;;;7.37;6.40;;;8.70;99.90;;;;;;5053299;28;20187;-41
2020/12/23 03:37:12;;;;;;;9.63;7.93;;;8.70;99.90;;;;;;5053534;28;20196;-42
2020/12/23 03:39:38;;;;;;;10.70;8.57;;;8.70;99.90;;;;;;5053426;28;20227;-41
2020/12/23 03:42:05;;;;;;;10.50;8.40;;;8.70;99.90;;;;;;5053607;28;20255;-42
2020/12/23 03:44:31;;;;;;;10.60;8.23;;;8.80;99.90;;;;;;5053355;28;20210;-41
2020/12/23 03:46:58;;;;;;;10.85;8.05;;;8.80;99.90;;;;;;5052815;28;20539;-41
2020/12/23 03:49:25;;;;;;;9.18;8.10;;;8.80;99.90;;;;;;5053562;28;20599;-42
2020/12/23 03:51:51;;;;;;;10.50;8.43;;;8.80;99.90;;;;;;5053020;28;20219;-41
2020/12/23 03:54:18;;;;;;;10.00;8.53;;;8.90;99.90;;;;;;5053415;28;20203;-42
2020/12/23 03:56:44;;;;;;;10.63;9.18;;;8.80;99.90;;;;;;5052686;28;20215;-41
2020/12/23 03:59:11;;;;;;;10.87;9.73;;;8.80;99.90;;;;;;5053253;28;20283;-41
2020/12/23 04:01:37;;;;;;;10.73;8.48;;;8.80;99.90;;;;;;5053148;28;20213;-42
2020/12/23 04:04:04;;;;;;;12.57;9.10;;;8.80;99.90;;;;;;5052915;28;20327;-41
2020/12/23 04:06:31;;;;;;;13.93;9.57;;;8.70;99.90;;;;;;5052694;28;20291;-41
2020/12/23 04:08:58;;;;;;;8.57;7.68;;;8.70;99.90;;;;;;5052752;28;20817;-42
2020/12/23 04:11:24;;;;;;;17.07;9.60;;;8.60;99.90;;;;;;5052672;28;20243;-41
2020/12/23 04:13:51;;;;;;;10.60;8.52;;;8.60;99.90;;;;;;5052874;28;20219;-41
2020/12/23 04:16:17;;;;;;;12.10;8.93;;;8.70;99.90;;;;;;5052781;28;20284;-43
2020/12/23 04:18:44;;;;;;;10.40;8.98;;;8.60;99.90;;;;;;5055683;28;20223;-42
2020/12/23 04:21:10;;;;;;;14.27;8.75;;;8.50;99.90;;;;;;5052411;28;20554;-42
2020/12/23 04:23:37;;;;;;;12.93;8.97;;;8.60;99.90;;;;;;5052690;28;20202;-42
2020/12/23 04:26:04;;;;;;;10.13;8.50;;;8.60;99.90;;;;;;5052735;28;20271;-42
2020/12/23 04:28:31;;;;;;;14.00;10.87;;;8.50;99.90;;;;;;5052678;28;20733;-42
2020/12/23 04:30:57;;;;;;;11.87;9.37;;;8.60;99.90;;;;;;5052464;28;20223;-42
2020/12/23 04:33:24;;;;;;;11.07;8.97;;;8.50;99.90;;;;;;5052506;28;20223;-42
2020/12/23 04:35:50;;;;;;;12.83;10.13;;;8.50;99.90;;;;;;5056759;28;20268;-41
2020/12/23 04:38:16;;;;;;;11.57;9.13;;;8.50;99.90;;;;;;5053868;28;20640;-42
2020/12/23 04:40:44;;;;;;;13.53;10.77;;;8.50;99.90;;;;;;5052276;28;20215;-42
2020/12/23 04:43:10;;;;;;;14.57;11.90;;;8.40;99.90;;;;;;5052546;28;20312;-41
2020/12/23 04:45:37;;;;;;;12.80;11.07;;;8.40;99.90;;;;;;5053166;28;20222;-42
2020/12/23 04:48:04;;;;;;;12.07;10.77;;;8.40;99.90;;;;;;5052067;28;20201;-42
2020/12/23 04:50:33;;;;;;;13.05;10.88;;;8.40;99.90;;;;;;5052121;28;20215;-41
2020/12/23 04:53:00;;;;;;;15.90;12.27;;;8.40;99.90;;;;;;5051961;28;20272;-41
2020/12/23 04:55:27;;;;;;;13.73;11.63;;;8.50;99.90;;;;;;5034576;28;20193;-42
2020/12/23 04:57:56;;;;;;;14.73;12.17;;;8.50;99.90;;;;;;5052854;28;20210;-41
2020/12/23 05:00:25;;;;;;;14.50;10.57;;;8.50;99.90;;;;;;5052175;28;20561;-41
2020/12/23 05:03:02;;;;;;;15.03;12.27;;;8.50;99.90;;;;;;5052643;28;20278;-41
2020/12/23 05:05:28;;;;;;;16.07;12.77;;;8.50;99.90;;;;;;5032701;28;20222;-42
2020/12/23 05:07:55;;;;;;;15.10;12.13;;;8.60;99.90;;;;;;5032779;28;20204;-41
2020/12/23 05:10:21;;;;;;;14.37;12.07;;;8.60;99.90;;;;;;5033607;28;20335;-42
2020/12/23 05:12:48;;;;;;;14.77;12.70;;;8.60;99.90;;;;;;5052277;28;20586;-41
2020/12/23 05:15:17;;;;;;;14.73;12.37;;;8.60;99.90;;;;;;5052653;28;20265;-42
2020/12/23 05:17:45;;;;;;;14.57;12.63;;;8.70;99.90;;;;;;5051950;28;20734;-41
2020/12/23 05:20:12;;;;;;;16.33;13.20;;;8.70;99.90;;;;;;5051373;28;20194;-41
2020/12/23 05:22:38;;;;;;;17.07;13.17;;;8.70;99.90;;;;;;5051729;28;20300;-42
2020/12/23 05:25:05;;;;;;;17.53;13.17;;;8.70;99.90;;;;;;5032205;28;20624;-41
2020/12/23 05:27:33;;;;;;;17.40;12.63;;;8.70;99.90;;;;;;5045222;28;20668;-41
2020/12/23 05:30:02;;;;;;;17.33;11.90;;;8.60;99.90;;;;;;5051929;28;20222;-41
2020/12/23 05:32:33;;;;;;;16.70;14.00;;;8.50;99.90;;;;;;5051745;28;20223;-41
2020/12/23 05:35:00;;;;;;;15.30;12.73;;;8.50;99.90;;;;;;5050106;28;20203;-42
2020/12/23 05:37:27;;;;;;;15.52;12.65;;;8.60;99.90;;;;;;5051909;28;20233;-42
2020/12/23 05:39:54;;;;;;;17.07;13.90;;;8.60;99.90;;;;;;5052485;28;20199;-42
2020/12/23 05:42:21;;;;;;;18.67;13.75;;;8.70;99.90;;;;;;5051822;28;20208;-41
2020/12/23 05:44:51;;;;;;;14.70;13.02;;;8.70;99.90;;;;;;5053708;28;20210;-42
2020/12/23 05:47:23;;;;;;;14.80;12.70;;;8.70;99.90;;;;;;5051783;28;20664;-42
2020/12/23 05:49:51;;;;;;;15.52;12.25;;;8.70;99.90;;;;;;5051501;28;20697;-42
2020/12/23 05:52:18;;;;;;;19.38;13.88;;;8.70;99.90;;;;;;5050518;28;20315;-42
2020/12/23 05:54:45;;;;;;;16.03;13.23;;;8.70;99.90;;;;;;5050811;28;20211;-42
2020/12/23 05:57:12;;;;;;;17.40;13.70;;;8.70;99.90;;;;;;5051286;28;20215;-41
2020/12/23 05:59:38;;;;;;;16.77;13.50;;;8.70;99.90;;;;;;5050820;28;20212;-42
2020/12/23 06:02:07;;;;;;;18.20;14.03;;;8.70;99.90;;;;;;5050782;28;20215;-42
2020/12/23 06:04:36;;;;;;;15.47;12.37;;;8.70;99.90;;;;;;5050833;28;20661;-42
2020/12/23 06:07:06;;;;;;;16.07;12.13;;;8.70;99.90;;;;;;5051056;28;20229;-42
2020/12/23 06:09:37;;;;;;;16.67;13.77;;;8.70;99.90;;;;;;5050894;28;20223;-42
2020/12/23 06:12:16;;;;;;;16.90;12.85;;;8.70;99.90;;;;;;5050137;28;20210;-42
2020/12/23 06:14:51;;;;;;;17.92;13.98;;;8.70;99.90;;;;;;5049702;28;20191;-42
2020/12/23 06:17:20;;;;;;;16.65;13.20;;;8.80;99.90;;;;;;5050921;28;20278;-42
2020/12/23 06:19:49;;;;;;;16.20;13.30;;;8.70;99.90;;;;;;5049924;28;20213;-42
2020/12/23 06:22:16;;;;;;;17.03;12.80;;;8.80;99.90;;;;;;5050667;28;20248;-47
2020/12/23 06:24:44;;;;;;;16.30;13.70;;;8.70;99.90;;;;;;5050730;28;20594;-42
2020/12/23 06:27:11;;;;;;;15.00;12.18;;;8.70;99.90;;;;;;5050759;28;20270;-42
2020/12/23 06:29:40;;;;;;;20.13;13.43;;;8.80;99.90;;;;;;5050685;28;20205;-41
2020/12/23 06:32:08;;;;;;;18.97;12.60;;;8.80;99.90;;;;;;5050431;28;20236;-42
2020/12/23 06:34:36;;;;;;;18.83;12.90;;;9.00;99.90;;;;;;5050782;28;20251;-42
2020/12/23 06:37:16;;;;;;;17.93;12.90;;;8.90;99.90;;;;;;5050646;28;20207;-43
2020/12/23 06:39:44;;;;;;;17.70;13.27;;;8.80;99.90;;;;;;5050959;28;20195;-42
2020/12/23 06:42:45;;;;;;;21.27;15.40;;;8.80;99.90;;;;;;5050173;28;20699;-42
2020/12/23 06:45:13;;;;;;;18.15;13.38;;;8.80;99.90;;;;;;5050640;28;20202;-42
2020/12/23 06:47:40;;;;;;;17.73;13.10;;;8.80;99.90;;;;;;5050646;28;20201;-41
2020/12/23 06:50:15;;;;;;;18.27;13.73;;;8.80;99.90;;;;;;5050495;28;20683;-42
2020/12/23 06:52:44;;;;;;;17.88;13.15;;;8.80;99.90;;;;;;5050279;28;20223;-41
2020/12/23 06:55:12;;;;;;;20.73;15.57;;;8.80;99.90;;;;;;5050347;28;20282;-41
2020/12/23 06:57:55;;;;;;;23.50;15.43;;;8.80;99.90;;;;;;5050460;28;20238;-42
2020/12/23 07:00:41;;;;;;;20.35;13.52;;;8.80;99.90;;;;;;5051076;28;20195;-41
2020/12/23 07:03:09;;;;;;;24.05;16.45;;;8.80;99.90;;;;;;5050714;28;20200;-41
2020/12/23 07:05:43;;;;;;;17.27;13.60;;;8.80;99.90;;;;;;5051740;28;20732;-42
2020/12/23 07:08:16;;;;;;;18.20;14.40;;;8.80;99.90;;;;;;5050037;28;20200;-42
2020/12/23 07:10:45;;;;;;;16.17;14.10;;;8.80;99.90;;;;;;5051996;28;20236;-42
2020/12/23 07:13:15;;;;;;;19.90;14.30;;;8.80;99.90;;;;;;5050349;28;20652;-42
2020/12/23 07:15:43;;;;;;;20.57;14.77;;;8.80;99.90;;;;;;5050595;28;20665;-42
2020/12/23 07:18:12;;;;;;;21.30;15.70;;;8.80;99.90;;;;;;5050716;28;20259;-42
2020/12/23 07:20:41;;;;;;;20.35;13.63;;;8.80;99.90;;;;;;5050605;28;20245;-42
2020/12/23 07:23:10;;;;;;;22.52;14.52;;;8.80;99.90;;;;;;5050164;28;20278;-42
2020/12/23 07:25:40;;;;;;;18.50;14.07;;;8.80;99.90;;;;;;5050607;28;20198;-42
2020/12/23 07:28:09;;;;;;;20.02;14.90;;;8.90;99.90;;;;;;5050955;28;20228;-42
2020/12/23 07:30:37;;;;;;;20.02;14.35;;;8.80;99.90;;;;;;5050110;28;20219;-42
2020/12/23 07:33:08;;;;;;;19.23;15.13;;;8.80;99.90;;;;;;5048805;28;20216;-42
2020/12/23 07:35:35;;;;;;;25.90;19.07;;;8.90;99.90;;;;;;5024551;28;20662;-42
2020/12/23 07:38:04;;;;;;;20.77;13.60;;;8.90;99.90;;;;;;5049992;28;20209;-42
2020/12/23 07:40:32;;;;;;;21.67;15.77;;;8.90;99.90;;;;;;5050546;28;20200;-42
2020/12/23 07:42:59;;;;;;;24.05;17.00;;;8.90;99.90;;;;;;5052040;28;20202;-42
2020/12/23 07:45:27;;;;;;;23.20;16.77;;;8.90;99.90;;;;;;5053526;28;20196;-42
2020/12/23 07:47:56;;;;;;;21.67;16.63;;;9.00;99.90;;;;;;5053827;28;20271;-42
2020/12/23 07:50:23;;;;;;;25.40;17.53;;;9.00;99.90;;;;;;5054220;28;20223;-42
2020/12/23 07:52:50;;;;;;;20.27;14.77;;;9.00;99.90;;;;;;5053742;28;20197;-42
2020/12/23 07:55:18;;;;;;;21.58;16.08;;;9.00;99.90;;;;;;5053704;28;20296;-42
2020/12/23 07:57:45;;;;;;;25.17;17.43;;;9.10;99.90;;;;;;5053760;28;20284;-42
2020/12/23 08:00:13;;;;;;;25.53;16.87;;;9.00;99.90;;;;;;5053331;28;20199;-42
2020/12/23 08:02:40;;;;;;;25.70;17.05;;;9.00;99.90;;;;;;5053644;28;20251;-42
2020/12/23 08:05:09;;;;;;;23.10;16.73;;;9.00;99.90;;;;;;5053050;28;20236;-42
2020/12/23 08:07:38;;;;;;;22.13;16.48;;;9.00;99.90;;;;;;5053863;28;20218;-42
2020/12/23 08:10:13;;;;;;;23.80;16.37;;;9.10;99.90;;;;;;5053335;28;20268;-42
2020/12/23 08:12:50;;;;;;;22.23;16.05;;;9.10;99.90;;;;;;5049884;28;20306;-42
2020/12/23 08:15:18;;;;;;;27.97;18.67;;;9.10;99.90;;;;;;5053770;28;20611;-42
2020/12/23 08:17:45;;;;;;;27.80;18.07;;;9.10;99.90;;;;;;5054084;28;20187;-42
2020/12/23 08:20:13;;;;;;;28.20;18.43;;;9.20;99.90;;;;;;5053744;28;20199;-42
2020/12/23 08:22:41;;;;;;;27.35;17.33;;;9.10;99.90;;;;;;5053322;28;20689;-41
2020/12/23 08:25:13;;;;;;;27.65;18.85;;;9.20;99.90;;;;;;5051735;28;20225;-42
2020/12/23 08:27:42;;;;;;;29.60;16.45;;;9.10;99.90;;;;;;5053432;28;20614;-42
2020/12/23 08:30:11;;;;;;;28.73;18.47;;;9.20;99.90;;;;;;5052938;28;20247;-42
2020/12/23 08:32:43;;;;;;;26.48;17.67;;;9.20;99.90;;;;;;5052540;28;20431;-42
2020/12/23 08:35:11;;;;;;;35.97;21.67;;;9.20;99.90;;;;;;5050105;28;20196;-42
2020/12/23 08:37:38;;;;;;;27.37;19.20;;;9.20;99.90;;;;;;5051654;28;20237;-42
2020/12/23 08:40:06;;;;;;;32.97;20.30;;;9.30;99.90;;;;;;5034432;28;21380;-42
2020/12/23 08:42:33;;;;;;;30.15;19.77;;;9.30;99.90;;;;;;5044154;28;20316;-42
2020/12/23 08:45:00;;;;;;;34.75;20.23;;;9.30;99.90;;;;;;5050298;28;20287;-42
2020/12/23 08:47:30;;;;;;;22.73;16.93;;;9.30;99.90;;;;;;5044705;28;20195;-42
2020/12/23 08:49:58;;;;;;;34.77;19.93;;;9.30;99.90;;;;;;5046854;28;20215;-42
2020/12/23 08:52:26;;;;;;;33.05;20.67;;;9.40;99.90;;;;;;5045690;28;20308;-42
2020/12/23 08:54:53;;;;;;;36.75;22.63;;;9.40;99.90;;;;;;5051097;28;20199;-42
2020/12/23 08:57:25;;;;;;;36.10;21.90;;;9.40;99.90;;;;;;5051291;28;20235;-42
2020/12/23 08:59:52;;;;;;;29.80;19.30;;;9.40;99.90;;;;;;5051874;28;20244;-42
2020/12/23 09:02:19;;;;;;;31.95;18.67;;;9.40;99.90;;;;;;5051822;28;20306;-42
2020/12/23 09:04:46;;;;;;;29.67;19.60;;;9.40;99.90;;;;;;5044395;28;20243;-42
2020/12/23 09:07:21;;;;;;;32.17;19.60;;;9.50;99.90;;;;;;5050380;28;20199;-42
2020/12/23 09:09:48;;;;;;;34.63;20.35;;;9.50;99.90;;;;;;5052266;28;20194;-42
2020/12/23 09:12:23;;;;;;;27.57;18.40;;;9.50;99.90;;;;;;5051879;28;20252;-41
2020/12/23 09:14:50;;;;;;;31.63;20.50;;;9.50;99.90;;;;;;5050696;28;20214;-42
2020/12/23 09:17:21;;;;;;;31.13;20.57;;;9.50;99.90;;;;;;5052910;28;20201;-42
2020/12/23 09:19:54;;;;;;;32.30;19.17;;;9.50;99.90;;;;;;5037438;28;20195;-42
2020/12/23 09:22:32;;;;;;;32.10;21.10;;;9.50;99.90;;;;;;5051373;28;20594;-42
2020/12/23 09:25:17;;;;;;;32.45;21.40;;;9.50;99.90;;;;;;5052578;28;20263;-42
2020/12/23 09:27:45;;;;;;;28.45;19.35;;;9.50;99.90;;;;;;5052104;28;20254;-41
2020/12/23 09:30:11;;;;;;;32.47;21.73;;;9.50;99.90;;;;;;5052243;28;20345;-42
2020/12/23 09:32:52;;;;;;;33.15;21.95;;;9.60;99.90;;;;;;5051013;28;20317;-42
2020/12/23 09:35:21;;;;;;;35.63;21.97;;;9.60;99.90;;;;;;5052383;28;20565;-42
2020/12/23 09:37:48;;;;;;;31.07;20.27;;;9.70;99.90;;;;;;5051796;28;20230;-42
2020/12/23 09:40:16;;;;;;;32.03;20.40;;;9.60;99.90;;;;;;5049158;28;20205;-41
2020/12/23 09:42:42;;;;;;;36.00;21.87;;;9.70;99.90;;;;;;5032075;28;20231;-42
2020/12/23 09:45:10;;;;;;;37.13;20.63;;;9.70;99.90;;;;;;5032448;28;20211;-41
2020/12/23 09:47:42;;;;;;;40.40;21.25;;;9.70;99.90;;;;;;5031737;28;20209;-42
2020/12/23 09:50:08;;;;;;;28.67;19.40;;;9.80;99.90;;;;;;5032105;28;20200;-41
2020/12/23 09:52:35;;;;;;;30.02;20.25;;;9.80;99.90;;;;;;5050981;28;20225;-41
2020/12/23 09:55:03;;;;;;;28.80;20.13;;;9.80;99.90;;;;;;5052264;28;20208;-41
2020/12/23 09:57:29;;;;;;;29.52;20.42;;;9.80;99.90;;;;;;5049112;28;20296;-41
2020/12/23 09:59:56;;;;;;;27.80;19.03;;;9.80;99.90;;;;;;5052957;28;20236;-42
2020/12/23 10:02:23;;;;;;;28.00;18.25;;;9.90;99.90;;;;;;5052493;28;20315;-42
2020/12/23 10:04:49;;;;;;;32.35;20.92;;;9.90;99.90;;;;;;5051504;28;20199;-42
2020/12/23 10:07:19;;;;;;;26.27;17.50;;;10.00;99.90;;;;;;5051762;28;20216;-43
2020/12/23 10:09:46;;;;;;;29.27;18.85;;;10.00;99.90;;;;;;5052205;28;20235;-42
2020/12/23 10:12:14;;;;;;;28.17;19.60;;;10.00;99.90;;;;;;5051692;28;20219;-42
2020/12/23 10:14:40;;;;;;;32.53;20.42;;;10.00;99.90;;;;;;5051522;28;20205;-42
2020/12/23 10:17:07;;;;;;;26.58;18.02;;;10.00;99.90;;;;;;5051470;28;20238;-42
2020/12/23 10:19:33;;;;;;;32.60;19.13;;;10.10;99.90;;;;;;5046414;28;20724;-42
2020/12/23 10:22:00;;;;;;;27.25;17.17;;;10.10;99.90;;;;;;5050704;28;20363;-42
2020/12/23 10:24:26;;;;;;;29.67;19.37;;;10.10;99.90;;;;;;5049631;28;20204;-43
2020/12/23 10:26:53;;;;;;;27.87;18.07;;;10.20;99.90;;;;;;5053304;28;20200;-42
2020/12/23 10:29:21;;;;;;;28.83;18.47;;;10.10;99.90;;;;;;5051251;28;20209;-42
2020/12/23 10:31:48;;;;;;;26.80;19.27;;;10.10;99.90;;;;;;5052396;28;20688;-42
2020/12/23 10:34:15;;;;;;;23.20;16.30;;;10.10;99.90;;;;;;5052111;28;20214;-42
2020/12/23 10:36:42;;;;;;;25.50;16.98;;;10.10;99.90;;;;;;5054708;28;20206;-42
2020/12/23 10:39:09;;;;;;;26.98;18.52;;;10.10;99.90;;;;;;5050187;28;20288;-43
2020/12/23 10:41:35;;;;;;;24.52;17.92;;;10.10;99.90;;;;;;5050667;28;20228;-41
2020/12/23 10:44:02;;;;;;;24.90;17.47;;;10.20;99.90;;;;;;5051099;28;20194;-41
2020/12/23 10:46:29;;;;;;;25.83;16.88;;;10.20;99.90;;;;;;5051278;28;20206;-42
2020/12/23 10:48:56;;;;;;;27.33;18.27;;;10.30;99.90;;;;;;5050348;28;20193;-42
2020/12/23 10:51:22;;;;;;;24.30;16.25;;;10.30;99.90;;;;;;5051062;28;20306;-42
2020/12/23 10:53:49;;;;;;;28.30;18.30;;;10.30;99.90;;;;;;5050172;28;20437;-42
2020/12/23 10:56:15;;;;;;;22.73;16.58;;;10.30;99.90;;;;;;5035469;28;20336;-42
2020/12/23 10:58:41;;;;;;;29.48;19.70;;;10.40;99.90;;;;;;5049837;28;20198;-42
2020/12/23 11:01:08;;;;;;;22.05;15.73;;;10.30;99.90;;;;;;5049583;28;20307;-43
2020/12/23 11:03:36;;;;;;;26.48;17.65;;;10.40;99.90;;;;;;5046508;28;20219;-43
2020/12/23 11:06:02;;;;;;;25.90;16.45;;;10.40;99.90;;;;;;5046790;28;20208;-42
2020/12/23 11:08:29;;;;;;;23.67;17.00;;;10.40;99.90;;;;;;5048042;28;20733;-42
2020/12/23 11:10:56;;;;;;;24.83;17.48;;;10.40;99.90;;;;;;5048279;28;20330;-42
2020/12/23 11:13:22;;;;;;;24.10;17.20;;;10.40;99.90;;;;;;5048310;28;20290;-42
2020/12/23 11:15:49;;;;;;;29.07;19.73;;;10.50;99.90;;;;;;5050325;28;20197;-42
2020/12/23 11:18:15;;;;;;;25.98;17.65;;;10.40;99.90;;;;;;5051564;28;20231;-43
2020/12/23 11:20:43;;;;;;;21.33;16.50;;;10.40;99.90;;;;;;5050600;28;20228;-43
2020/12/23 11:23:09;;;;;;;25.47;17.83;;;10.50;99.90;;;;;;5048971;28;20203;-42
2020/12/23 11:25:35;;;;;;;27.20;18.27;;;10.50;99.90;;;;;;5052297;28;20215;-42
2020/12/23 11:28:02;;;;;;;26.30;18.75;;;10.50;99.90;;;;;;5053918;28;20205;-43
2020/12/23 11:30:28;;;;;;;25.23;18.33;;;10.50;99.90;;;;;;5053720;28;20323;-42
2020/12/23 11:32:55;;;;;;;24.23;16.42;;;10.60;99.90;;;;;;5052856;28;20193;-42
2020/12/23 11:35:21;;;;;;;34.58;20.88;;;10.60;99.90;;;;;;5053760;28;20233;-41
2020/12/23 11:37:49;;;;;;;27.50;18.27;;;10.70;99.90;;;;;;5053882;28;20239;-43
2020/12/23 11:40:15;;;;;;;25.37;17.27;;;10.60;99.90;;;;;;5051169;28;20294;-41
2020/12/23 11:42:42;;;;;;;25.45;17.40;;;10.70;99.90;;;;;;5053256;28;20233;-41
2020/12/23 11:45:10;;;;;;;24.05;17.42;;;10.70;99.90;;;;;;5053950;28;20211;-42
2020/12/23 11:47:36;;;;;;;23.92;17.20;;;10.70;99.90;;;;;;5053335;28;20285;-42
2020/12/23 11:50:04;;;;;;;25.83;17.85;;;10.70;99.90;;;;;;5053964;28;20224;-42
2020/12/23 11:52:32;;;;;;;24.33;16.65;;;10.70;99.90;;;;;;5052594;28;20907;-41
2020/12/23 11:54:59;;;;;;;25.52;15.55;;;10.80;99.90;;;;;;5053785;28;20199;-42
2020/12/23 11:57:25;;;;;;;22.40;16.88;;;10.70;99.90;;;;;;5052838;28;20244;-42
2020/12/23 11:59:52;;;;;;;24.20;15.13;;;10.80;99.90;;;;;;5053622;28;20573;-43
2020/12/23 12:02:18;;;;;;;22.27;16.63;;;10.80;99.90;;;;;;5052784;28;20249;-42
2020/12/23 12:04:45;;;;;;;17.87;13.93;;;10.80;99.90;;;;;;5052670;28;20228;-43
2020/12/23 12:07:11;;;;;;;17.93;13.70;;;10.80;99.90;;;;;;5053393;28;20623;-42
2020/12/23 12:09:38;;;;;;;19.02;13.50;;;10.80;99.90;;;;;;5053455;28;20202;-41
2020/12/23 12:12:05;;;;;;;22.50;15.73;;;10.80;99.90;;;;;;5053422;28;20674;-42
2020/12/23 12:14:32;;;;;;;15.55;12.93;;;10.90;99.90;;;;;;5053932;28;20204;-42
2020/12/23 12:16:58;;;;;;;15.43;12.82;;;10.90;99.90;;;;;;5054201;28;20236;-42
2020/12/23 12:19:25;;;;;;;17.00;12.23;;;10.90;99.90;;;;;;5053843;28;20564;-42
2020/12/23 12:21:51;;;;;;;18.43;13.07;;;11.00;99.90;;;;;;5052864;28;20245;-42
2020/12/23 12:24:18;;;;;;;15.03;10.70;;;11.00;99.90;;;;;;5053395;28;20213;-42
2020/12/23 12:26:44;;;;;;;15.60;11.73;;;11.00;99.90;;;;;;5054467;28;20206;-42
2020/12/23 12:29:12;;;;;;;17.23;12.25;;;11.00;99.90;;;;;;5055625;28;20227;-42
2020/12/23 12:31:39;;;;;;;14.80;11.00;;;11.00;99.90;;;;;;5053030;28;20234;-42
2020/12/23 12:34:05;;;;;;;15.60;10.95;;;11.00;99.90;;;;;;5051236;28;20221;-42
2020/12/23 12:36:32;;;;;;;12.23;10.52;;;11.00;99.90;;;;;;5052052;28;20200;-42
2020/12/23 12:38:59;;;;;;;18.35;11.95;;;11.00;99.90;;;;;;5051792;28;20225;-42
2020/12/23 12:41:26;;;;;;;16.10;11.50;;;11.00;99.90;;;;;;5033262;28;20589;-42
2020/12/23 12:43:53;;;;;;;16.17;12.25;;;11.00;99.90;;;;;;5050740;28;20269;-42